MSC Vega — D5BE4 — position and weather

sailwx.info

Track history (hours):
 
Tides and Currents Weather Stations Pressure Air Temp Water Temp Dewpoint Dewpoint Depression Visibility Wind Speed Wind Dir Waves Ship Positions

MSC Vega

Last reported at 2014-Jul-28 12:08 UTC. Time now 2014-Jul-29 02:45 UTC.
Position N 24°14' E 118°25'.

Length 366 m; draft 11.9 m.

Type: Ship (hazmat cat A). MMSI: 636015506.

Date/timePositionNaut miles runAvg speedWind from/ knotsBaromVisibWave heightAir tempDewpointWater temp
2014-Jul-28 12:08N 24°14' E 118°25'813.9
2014-Jul-28 11:31N 24°14' E 118°16'1414.2
2014-Jul-28 10:33N 24°25' E 118°06'5 4.1
2014-Jul-28 09:25N 24°27' E 118°01'0 0.0
2014-Jul-28 05:25N 24°27' E 118°01'0 0.0
2014-Jul-28 03:31N 24°27' E 118°01'0 0.0
2014-Jul-28 02:31N 24°27' E 118°01'0 0.0
2014-Jul-28 01:25N 24°27' E 118°01'0 0.0
2014-Jul-28 00:25N 24°27' E 118°01'0 0.0
2014-Jul-27 23:31N 24°27' E 118°01'2 2.4
2014-Jul-27 22:33N 24°26' E 118°03'1313.3
2014-Jul-27 21:33N 24°17' E 118°14'8 7.6
2014-Jul-27 20:31N 24°13' E 118°22'0 0.1
2014-Jul-27 19:31N 24°13' E 118°22'0 0.1
2014-Jul-27 18:25N 24°13' E 118°22'0 0.1
2014-Jul-27 17:31N 24°13' E 118°22'0 0.1
2014-Jul-27 16:25N 24°14' E 118°22'1 0.9
2014-Jul-27 15:33N 24°14' E 118°23'9 8.9
2014-Jul-27 14:34N 24°05' E 118°22'1010.4
2014-Jul-27 13:33N 23°55' E 118°17'1111.1
2014-Jul-27 12:33N 23°46' E 118°10'1413.6
2014-Jul-27 11:33N 23°35' E 118°01'1515.0
2014-Jul-27 10:34N 23°26' E 117°49'1514.9
2014-Jul-27 09:33N 23°17' E 117°35'1714.1
2014-Jul-27 08:20N 23°07' E 117°20'1714.0
2014-Jul-27 07:06N 22°57' E 117°05'814.2
2014-Jul-27 06:33N 22°53' E 116°58'1514.3
2014-Jul-27 05:32N 22°46' E 116°43'14813.4
2014-Jul-26 18:30N 22°18' E 114°06'1212.0
2014-Jul-26 17:32N 22°22' E 113°54'7 7.3
2014-Jul-26 16:32N 22°29' E 113°52'0 0.0
2014-Jul-26 07:07N 22°29' E 113°52'0 0.0
2014-Jul-26 05:07N 22°29' E 113°52'1 0.7
2014-Jul-26 03:33N 22°28' E 113°52'  
2014-Jul-20 13:32N 01°16' E 104°09'1818.2
2014-Jul-20 12:33N 01°12' E 103°52'8 8.2
2014-Jul-20 11:33N 01°16' E 103°45'0 0.3
2014-Jul-20 10:32N 01°17' E 103°45'0 0.0
2014-Jul-20 08:23N 01°17' E 103°45'0 0.0
2014-Jul-20 07:32N 01°17' E 103°45'0 0.0
2014-Jul-20 06:32N 01°17' E 103°45'0 0.0
2014-Jul-20 05:32N 01°17' E 103°45'0 0.0
2014-Jul-20 04:26N 01°17' E 103°45'0 0.0
2014-Jul-20 03:05N 01°17' E 103°45'0 0.0
2014-Jul-20 01:05N 01°17' E 103°45'0 0.0
2014-Jul-20 00:26N 01°17' E 103°45'0 0.0
2014-Jul-19 23:29N 01°17' E 103°45'0 0.0
2014-Jul-19 21:26N 01°17' E 103°45'0 0.0
2014-Jul-19 18:32N 01°17' E 103°45'0 0.0
2014-Jul-19 12:26N 01°17' E 103°45'0 0.0
2014-Jul-19 11:05N 01°17' E 103°45'0 0.0
2014-Jul-19 10:29N 01°17' E 103°45'0 0.0
2014-Jul-19 09:23N 01°17' E 103°45'0 0.0
2014-Jul-19 08:14N 01°17' E 103°45'0 0.0
2014-Jul-19 07:26N 01°17' E 103°45'0 0.0
2014-Jul-19 06:11N 01°17' E 103°45'0 0.0
2014-Jul-19 03:05N 01°17' E 103°45'0 0.1
2014-Jul-19 02:23N 01°17' E 103°45'0 0.1
2014-Jul-19 01:33N 01°17' E 103°45'2 1.7
2014-Jul-19 00:33N 01°15' E 103°45'3 3.1
2014-Jul-18 23:32N 01°14' E 103°42'8 6.2
2014-Jul-18 22:13N 01°11' E 103°34'  
Track history (hours):
 
Tides and Currents Weather Stations Pressure Air Temp Water Temp Dewpoint Dewpoint Depression Visibility Wind Speed Wind Dir Waves Ship Positions

MSC Vega

Last reported at 2014-Jul-28 12:08 UTC. Time now 2014-Jul-29 02:45 UTC.
Position N 24°14' E 118°25'.

Length 366 m; draft 11.9 m.

Type: Ship (hazmat cat A). MMSI: 636015506.

Date/timePositionNaut miles runAvg speedWind from/ knotsBaromVisibWave heightAir tempDewpointWater temp
2014-Jul-28 12:08N 24°14' E 118°25'813.9
2014-Jul-28 11:31N 24°14' E 118°16'1414.2
2014-Jul-28 10:33N 24°25' E 118°06'5 4.1
2014-Jul-28 09:25N 24°27' E 118°01'0 0.0
2014-Jul-28 05:25N 24°27' E 118°01'0 0.0
2014-Jul-28 03:31N 24°27' E 118°01'0 0.0
2014-Jul-28 02:31N 24°27' E 118°01'0 0.0
2014-Jul-28 01:25N 24°27' E 118°01'0 0.0
2014-Jul-28 00:25N 24°27' E 118°01'0 0.0
2014-Jul-27 23:31N 24°27' E 118°01'2 2.4
2014-Jul-27 22:33N 24°26' E 118°03'1313.3
2014-Jul-27 21:33N 24°17' E 118°14'8 7.6
2014-Jul-27 20:31N 24°13' E 118°22'0 0.1
2014-Jul-27 19:31N 24°13' E 118°22'0 0.1
2014-Jul-27 18:25N 24°13' E 118°22'0 0.1
2014-Jul-27 17:31N 24°13' E 118°22'0 0.1
2014-Jul-27 16:25N 24°14' E 118°22'1 0.9
2014-Jul-27 15:33N 24°14' E 118°23'9 8.9
2014-Jul-27 14:34N 24°05' E 118°22'1010.4
2014-Jul-27 13:33N 23°55' E 118°17'1111.1
2014-Jul-27 12:33N 23°46' E 118°10'1413.6
2014-Jul-27 11:33N 23°35' E 118°01'1515.0
2014-Jul-27 10:34N 23°26' E 117°49'1514.9
2014-Jul-27 09:33N 23°17' E 117°35'1714.1
2014-Jul-27 08:20N 23°07' E 117°20'1714.0
2014-Jul-27 07:06N 22°57' E 117°05'814.2
2014-Jul-27 06:33N 22°53' E 116°58'1514.3
2014-Jul-27 05:32N 22°46' E 116°43'14813.4
2014-Jul-26 18:30N 22°18' E 114°06'1212.0
2014-Jul-26 17:32N 22°22' E 113°54'7 7.3
2014-Jul-26 16:32N 22°29' E 113°52'0 0.0
2014-Jul-26 07:07N 22°29' E 113°52'0 0.0
2014-Jul-26 05:07N 22°29' E 113°52'1 0.7
2014-Jul-26 03:33N 22°28' E 113°52'  
2014-Jul-20 13:32N 01°16' E 104°09'1818.2
2014-Jul-20 12:33N 01°12' E 103°52'8 8.2
2014-Jul-20 11:33N 01°16' E 103°45'0 0.3
2014-Jul-20 10:32N 01°17' E 103°45'0 0.0
2014-Jul-20 08:23N 01°17' E 103°45'0 0.0
2014-Jul-20 07:32N 01°17' E 103°45'0 0.0
2014-Jul-20 06:32N 01°17' E 103°45'0 0.0
2014-Jul-20 05:32N 01°17' E 103°45'0 0.0
2014-Jul-20 04:26N 01°17' E 103°45'0 0.0
2014-Jul-20 03:05N 01°17' E 103°45'0 0.0
2014-Jul-20 01:05N 01°17' E 103°45'0 0.0
2014-Jul-20 00:26N 01°17' E 103°45'0 0.0
2014-Jul-19 23:29N 01°17' E 103°45'0 0.0
2014-Jul-19 21:26N 01°17' E 103°45'0 0.0
2014-Jul-19 18:32N 01°17' E 103°45'0 0.0
2014-Jul-19 12:26N 01°17' E 103°45'0 0.0
2014-Jul-19 11:05N 01°17' E 103°45'0 0.0
2014-Jul-19 10:29N 01°17' E 103°45'0 0.0
2014-Jul-19 09:23N 01°17' E 103°45'0 0.0
2014-Jul-19 08:14N 01°17' E 103°45'0 0.0
2014-Jul-19 07:26N 01°17' E 103°45'0 0.0
2014-Jul-19 06:11N 01°17' E 103°45'0 0.0
2014-Jul-19 03:05N 01°17' E 103°45'0 0.1
2014-Jul-19 02:23N 01°17' E 103°45'0 0.1
2014-Jul-19 01:33N 01°17' E 103°45'2 1.7
2014-Jul-19 00:33N 01°15' E 103°45'3 3.1
2014-Jul-18 23:32N 01°14' E 103°42'8 6.2
2014-Jul-18 22:13N 01°11' E 103°34'  

Dump ship's entire track history